Date,TemperatureHighF,TemperatureAvgF,TemperatureLowF,DewpointHighF,DewpointAvgF,DewpointLowF,HumidityHigh,HumidityAvg,HumidityLow,PressureMaxIn,PressureMinIn,WindSpeedMaxMPH,WindSpeedAvgMPH,GustSpeedMaxMPH,PrecipitationSumIn
2013-1-1,77,61,44,64,54,42,95,80,58,30.19,30.02,9,2,14,0.00
2013-1-2,82,64,49,70,59,47,95,83,61,30.06,29.95,6,1,12,0.00
2013-1-3,73,64,58,69,62,56,96,92,80,30.15,30.00,6,2,8,0.03
2013-1-4,60,58,54,58,56,53,96,96,95,30.25,30.11,6,3,13,0.03
2013-1-5,75,63,53,65,59,52,96,86,70,30.27,30.15,7,3,10,0.00
2013-1-6,80,68,62,72,65,60,96,90,73,30.19,30.03,7,1,9,0.05
2013-1-7,68,63,57,66,59,54,95,88,74,30.19,30.09,9,4,10,0.00
2013-1-8,81,70,58,71,66,57,96,86,67,30.20,30.10,7,2,9,0.00
2013-1-9,82,74,68,73,70,66,95,87,68,30.27,30.16,8,2,11,0.00
2013-1-10,83,72,60,72,66,56,96,82,55,30.28,30.18,9,2,13,0.01
2013-1-11,80,68,56,72,64,53,95,86,70,30.24,30.12,10,2,12,0.00
2013-1-12,81,68,54,70,62,52,96,82,59,30.17,30.06,9,3,12,0.01
2013-1-13,81,68,53,70,63,51,96,83,62,30.14,30.04,7,2,10,0.01
2013-1-14,81,68,53,69,62,52,96,83,61,30.17,30.08,9,2,13,0.01
2013-1-15,80,69,54,70,63,53,96,83,60,30.12,30.03,7,2,10,0.00
2013-1-16,82,66,53,68,59,51,96,80,52,30.08,29.98,6,1,9,0.00
2013-1-17,78,61,52,71,57,45,95,86,75,30.09,29.96,10,3,18,0.01
2013-1-18,65,52,39,60,47,34,94,84,71,30.28,30.10,9,3,15,0.02
2013-1-19,74,64,54,63,58,50,92,82,67,30.25,30.11,10,4,15,0.01
2013-1-20,74,64,56,65,59,53,95,87,72,30.15,30.02,7,2,9,0.00
2013-1-21,73,64,58,66,59,54,92,85,74,30.07,29.97,5,1,6,0.00
2013-1-22,67,55,38,55,44,34,90,70,37,30.26,30.04,9,2,15,0.00
2013-1-23,70,50,36,41,36,31,93,64,27,30.36,30.25,7,2,10,0.00
2013-1-24,76,53,33,52,42,30,94,72,41,30.33,30.20,5,1,9,0.00
2013-1-25,76,55,39,60,46,37,95,74,45,30.31,30.15,6,1,9,0.01
2013-1-26,78,56,37,59,47,34,94,75,47,30.27,30.13,5,1,7,0.00
2013-1-27,78,60,42,63,52,40,95,78,51,30.30,30.20,6,2,12,0.01
2013-1-28,77,67,58,68,63,56,96,87,70,30.31,30.20,9,2,13,0.02
2013-1-29,82,71,64,71,67,63,96,87,63,30.23,30.07,10,4,16,0.00
2013-1-30,85,73,64,69,66,62,95,80,55,30.09,29.88,17,7,21,0.01
2013-1-31,70,56,35,67,46,30,95,71,31,30.22,29.88,9,2,15,0.06
2013-2-1,70,47,28,41,32,26,94,63,23,30.33,30.20,7,1,11,0.00
2013-2-2,74,50,30,47,38,27,93,68,35,30.29,30.12,6,1,12,0.00
2013-2-3,73,50,34,53,40,30,92,71,43,30.18,30.04,6,1,13,0.00
2013-2-4,72,49,31,50,37,28,93,69,31,30.13,30.01,6,1,11,0.01
2013-2-5,78,55,32,55,45,29,94,71,44,30.08,29.97,6,1,10,0.00
2013-2-6,78,65,49,64,57,46,93,76,55,30.09,30.00,5,1,6,0.00
2013-2-7,82,71,60,67,63,58,93,78,54,30.05,29.83,13,5,17,0.00
2013-2-8,84,70,54,65,60,51,94,74,41,30.06,29.84,6,2,11,0.00
2013-2-9,76,60,46,58,52,45,96,78,49,30.18,30.05,7,2,11,0.01
2013-2-10,78,65,54,62,58,52,94,78,58,30.25,30.13,11,3,16,0.00
2013-2-11,83,68,52,66,60,50,95,78,52,30.19,30.04,11,3,15,0.00
2013-2-12,86,70,53,71,63,51,95,79,51,30.08,29.91,8,2,13,0.00
2013-2-13,87,73,62,73,67,58,95,84,57,29.95,29.80,11,4,18,0.08
2013-2-14,64,61,59,62,59,58,96,93,90,30.01,29.90,4,1,6,0.31
2013-2-15,70,58,51,63,55,48,97,92,74,30.06,29.92,5,1,6,0.05
2013-2-16,70,54,43,54,45,31,96,74,48,30.10,29.89,8,2,17,0.00
2013-2-17,55,42,28,31,24,18,86,53,25,30.33,30.11,8,2,12,0.00
2013-2-18,68,47,24,48,37,22,93,71,46,30.34,30.19,8,2,13,0.00
2013-2-19,80,60,40,60,50,37,94,72,44,30.20,30.04,11,2,17,0.00
2013-2-20,79,64,50,65,57,46,95,80,60,30.11,29.98,5,1,7,0.00
2013-2-21,82,67,53,68,59,50,94,77,52,30.09,29.96,7,2,11,0.00
2013-2-22,85,72,55,71,64,53,95,79,52,30.06,29.95,12,3,15,0.00
2013-2-23,88,75,65,72,68,62,94,80,52,29.99,29.85,12,4,14,0.01
2013-2-24,80,71,66,73,68,64,95,90,76,29.94,29.85,5,1,9,0.01
2013-2-25,86,72,64,73,65,59,96,80,52,29.90,29.74,9,2,11,0.00
2013-2-26,77,70,63,74,67,60,94,91,85,29.85,29.71,14,4,19,0.09
2013-2-27,78,64,52,62,57,48,96,79,51,29.95,29.84,5,1,7,0.00
2013-2-28,76,59,42,57,49,39,95,73,42,29.98,29.86,7,2,14,0.01
2013-3-1,66,53,42,48,42,38,93,69,38,29.99,29.89,6,2,13,0.00
2013-3-2,60,49,34,43,36,29,85,64,40,30.03,29.94,8,2,16,0.00
2013-3-3,56,42,29,36,32,25,88,68,46,30.15,29.98,7,2,16,0.00
2013-3-4,68,45,25,37,30,22,92,61,25,30.22,30.09,6,1,11,0.00
2013-3-5,78,57,33,57,45,30,93,68,37,30.16,30.00,9,2,13,0.00
2013-3-6,63,55,39,62,48,32,94,79,50,30.12,29.92,9,3,13,0.00
2013-3-7,68,47,33,43,36,29,86,67,36,30.20,30.10,6,2,10,0.00
2013-3-8,78,53,30,50,38,28,95,63,23,30.21,30.09,6,1,11,0.00
2013-3-9,75,57,35,54,46,33,94,70,42,30.21,30.11,6,2,11,0.00
2013-3-10,78,64,50,59,54,46,94,73,48,30.16,30.04,10,3,14,0.00
2013-3-11,78,65,49,62,57,46,95,76,56,30.09,29.88,12,3,17,0.00
2013-3-12,70,65,54,68,62,51,95,89,76,30.01,29.85,10,5,14,0.33
2013-3-13,76,59,45,51,44,36,95,63,25,30.15,30.00,8,3,13,0.01
2013-3-14,69,53,39,42,36,31,89,59,27,30.25,30.13,9,2,15,0.00
2013-3-15,74,50,30,48,36,27,93,65,31,30.27,30.12,7,1,11,0.00
2013-3-16,80,58,34,53,43,31,92,63,29,30.17,30.02,7,1,11,0.00
2013-3-17,78,60,41,60,51,38,94,74,48,30.13,29.98,9,2,15,0.00
2013-3-18,78,69,58,67,62,55,93,81,67,30.03,29.85,15,3,15,0.00
2013-3-19,84,71,59,69,63,57,96,79,53,29.98,29.85,7,1,15,0.00
2013-3-20,75,67,58,69,62,55,95,86,68,29.94,29.77,5,2,10,0.10
2013-3-21,74,58,40,56,43,31,95,63,24,29.96,29.84,7,1,11,0.01
2013-3-22,78,57,34,65,49,31,94,77,45,30.00,29.86,10,2,14,0.20
2013-3-23,86,72,61,76,67,60,96,85,60,29.96,29.75,10,3,13,0.02
2013-3-24,82,74,67,74,70,63,95,89,68,29.82,29.60,11,4,16,0.18
2013-3-25,74,63,47,67,48,31,94,63,24,30.02,29.71,8,3,15,0.01
2013-3-26,61,51,40,42,34,29,79,54,30,30.22,30.01,8,3,19,0.00
2013-3-27,66,47,29,39,33,26,91,62,30,30.30,30.17,7,1,12,0.00
2013-3-28,73,51,28,46,34,26,92,60,24,30.28,30.16,8,2,11,0.00
2013-3-29,75,56,33,52,38,30,92,59,26,30.31,30.17,8,2,12,0.00
2013-3-30,80,59,38,57,46,35,92,66,38,30.24,30.09,9,2,14,0.00
2013-3-31,83,67,52,60,54,47,88,66,38,30.16,29.97,11,3,16,0.00
2013-4-1,85,71,58,69,62,54,94,75,53,30.02,29.91,7,2,16,0.00
2013-4-2,84,68,53,67,58,51,95,73,38,30.07,29.98,6,1,9,0.01
2013-4-3,84,70,57,69,64,52,94,80,54,30.06,29.91,11,3,13,0.10
2013-4-4,71,68,65,69,67,63,95,93,89,30.01,29.84,17,5,22,0.40
2013-4-5,76,67,60,70,63,56,95,86,61,29.96,29.78,8,2,11,0.15
2013-4-6,77,64,51,62,57,49,94,79,55,30.10,29.96,9,4,13,0.01
2013-4-7,80,68,56,65,60,53,95,76,52,30.13,30.03,6,2,9,0.00
2013-4-8,83,70,55,66,60,53,95,73,48,30.11,30.02,9,2,12,0.00
2013-4-9,83,70,54,70,62,52,95,78,55,30.14,30.05,9,2,12,0.00
2013-4-10,87,71,51,71,64,49,95,78,50,30.10,29.94,7,2,11,0.00
2013-4-11,89,78,71,74,71,68,95,81,57,29.98,29.80,12,6,15,0.08
2013-4-12,82,76,71,75,72,68,95,88,74,29.88,29.77,14,5,20,0.01
2013-4-13,86,76,66,73,69,63,95,80,60,29.96,29.85,6,1,9,0.00
2013-4-14,89,76,66,76,69,61,90,80,61,29.97,29.80,10,3,14,0.03
2013-4-15,91,75,62,72,66,58,90,74,50,30.05,29.90,5,1,8,0.00
2013-4-16,87,76,66,74,69,64,95,80,61,30.13,30.01,7,3,12,0.00
2013-4-17,85,72,58,71,64,56,95,78,53,30.12,30.00,9,3,12,0.00
2013-4-18,90,75,60,72,67,58,95,78,51,30.04,29.92,7,2,11,0.01
2013-4-19,90,80,70,75,71,67,95,77,54,29.99,29.88,14,4,18,0.00
2013-4-20,75,68,61,72,64,57,94,87,75,30.13,29.93,8,3,13,0.01
2013-4-21,80,68,60,72,65,57,96,91,77,30.12,29.99,7,3,10,0.57
2013-4-22,78,70,65,72,67,63,96,91,76,30.06,29.95,10,3,12,0.09
2013-4-23,81,71,63,68,64,60,96,80,55,30.09,29.99,10,4,15,0.00
2013-4-24,82,62,50,67,57,48,95,85,56,30.12,30.05,6,1,11,0.00
2013-4-30,88,76,67,73,69,66,95,81,53,29.99,29.87,11,1,12,0.79
2013-5-1,74,70,68,72,69,67,96,95,91,29.99,29.91,4,1,9,0.25
2013-5-2,76,69,64,73,67,63,97,95,90,29.95,29.79,4,1,6,0.24
2013-5-3,81,70,62,74,68,61,97,92,73,29.81,29.67,5,1,8,0.24
2013-5-4,82,73,67,75,68,63,96,86,66,29.78,29.63,5,1,13,0.01
2013-5-5,80,68,56,66,57,49,94,70,39,29.92,29.74,5,1,10,0.00
2013-5-6,80,66,54,64,57,48,93,73,48,29.99,29.87,5,1,11,0.00
2013-5-7,81,64,47,63,55,44,94,74,53,30.03,29.94,5,1,11,0.00
2013-5-8,84,68,51,66,58,49,94,74,49,30.11,30.00,4,1,10,0.00
2013-5-9,88,70,50,69,60,47,94,72,46,30.13,30.04,4,0,9,0.00
2013-5-10,93,76,57,74,66,55,95,74,42,30.11,29.96,8,2,13,0.00
2013-5-11,88,76,63,76,69,60,94,81,63,30.03,29.94,8,2,13,0.00
2013-5-12,90,75,65,76,68,62,95,80,57,30.02,29.91,7,1,13,0.00
2013-5-13,86,72,59,68,60,52,94,71,42,30.11,29.97,7,1,13,0.00
2013-5-14,85,67,45,62,53,42,93,65,32,30.18,30.09,7,1,13,0.00
2013-5-15,85,69,49,64,57,46,93,68,42,30.19,30.06,7,2,11,0.00
2013-5-16,87,73,54,67,62,52,94,70,44,30.11,29.98,5,2,11,0.00
2013-5-17,90,75,59,70,64,56,93,72,44,30.07,30.00,5,1,10,0.00
2013-5-18,93,78,61,75,67,59,94,73,41,30.08,29.96,7,2,11,0.00
2013-5-19,95,80,71,75,72,69,95,78,45,30.06,29.94,8,2,10,0.00
2013-5-20,91,76,67,75,70,65,94,81,54,30.06,29.94,6,1,7,0.22
2013-5-21,85,68,-90,75,66,-100,97,91,70,30.01,29.92,14,1,16,1.76
2013-5-22,83,73,65,80,71,64,97,94,81,29.97,29.86,8,1,18,0.01
2013-5-23,89,76,66,78,71,64,96,86,60,29.98,29.89,7,0,11,0.48
2013-5-24,93,78,63,80,69,62,95,75,39,30.06,29.95,3,0,9,0.01
2013-5-25,86,76,67,72,66,61,94,73,53,30.16,30.04,8,3,12,0.00
2013-5-26,84,71,53,66,60,51,94,71,42,30.19,30.10,6,2,12,0.00
2013-5-27,86,72,56,68,63,53,94,74,51,30.16,30.06,7,2,12,0.00
2013-5-28,86,75,63,76,70,60,95,84,67,30.12,30.02,8,3,12,0.31
2013-5-29,83,75,70,76,72,68,96,90,74,30.11,30.03,10,2,13,0.11
2013-5-30,84,76,71,76,72,70,96,88,73,30.08,30.00,8,2,18,0.30
2013-5-31,85,77,71,76,72,69,93,84,71,30.07,29.99,8,3,13,0.08
2013-6-1,88,78,72,78,74,70,95,86,68,30.04,29.91,8,2,12,0.02
2013-6-2,91,80,73,79,75,71,96,87,61,29.99,29.85,5,1,8,0.06
2013-6-3,86,78,71,79,74,69,96,88,75,29.98,29.87,7,2,10,0.01
2013-6-4,85,77,71,77,73,69,95,87,70,30.00,29.92,12,2,15,0.91
2013-6-5,80,74,72,77,73,70,96,94,84,29.99,29.88,6,1,8,0.20
2013-6-6,79,75,73,77,73,71,96,95,91,29.89,29.64,16,6,20,1.36
2013-6-7,86,78,72,79,74,70,96,89,73,29.92,29.75,8,2,10,0.00
2013-6-8,89,76,70,80,73,68,96,90,70,30.08,29.92,8,1,9,1.51
2013-6-9,89,78,70,81,74,69,96,90,67,30.08,29.99,9,2,13,0.33
2013-6-10,90,79,71,79,74,69,96,87,66,30.07,29.97,6,1,11,0.03
2013-6-11,89,77,71,81,74,69,95,90,70,30.06,29.96,5,1,9,0.05
2013-6-12,94,79,67,81,73,66,96,83,58,30.06,29.96,7,0,8,0.05
2013-6-13,93,80,70,81,75,68,95,83,63,30.01,29.87,12,1,14,0.00
2013-6-14,91,80,70,79,74,68,95,81,63,29.92,29.83,4,1,12,0.00
2013-6-15,89,79,72,82,75,70,94,89,76,30.04,29.88,8,1,9,0.00
2013-6-16,92,82,75,79,76,73,95,83,59,30.06,29.97,6,2,15,0.96
2013-6-17,91,81,71,82,77,70,96,88,69,30.07,29.94,10,1,12,0.97
2013-6-18,93,81,72,81,75,70,95,84,63,30.05,29.92,7,1,9,0.03
2013-6-19,92,81,71,80,75,70,95,83,64,30.02,29.93,8,1,14,0.00
2013-6-20,94,79,71,82,74,69,95,85,59,30.07,29.96,10,1,17,0.04
2013-6-21,90,75,67,79,72,66,96,90,66,30.11,30.01,5,0,14,2.78
2013-6-22,90,78,69,79,72,67,96,84,48,30.09,30.01,4,1,7,0.01
2013-6-23,90,78,69,78,74,67,95,87,63,30.12,30.03,10,1,15,0.00
2013-6-24,91,81,74,78,75,72,96,83,59,30.16,30.04,6,2,10,0.00
2013-6-25,91,82,71,78,74,69,95,79,57,30.13,30.00,5,1,9,0.00
2013-6-26,92,79,72,82,75,70,95,88,67,30.05,29.97,11,1,15,0.85
2013-6-27,91,79,68,80,74,67,96,85,61,30.03,29.90,5,1,9,0.01
2013-6-28,91,78,73,81,74,70,94,88,67,29.95,29.83,7,1,11,0.11
2013-6-29,87,78,74,81,76,72,95,92,76,29.85,29.78,7,2,10,0.16
2013-6-30,87,77,74,82,75,72,95,93,80,29.86,29.79,8,3,13,0.21
2013-7-1,80,75,72,78,73,71,96,94,90,30.00,29.83,13,5,15,1.09
2013-7-2,80,75,73,77,74,71,96,95,89,30.07,29.95,7,1,10,0.16
2013-7-3,88,77,72,81,74,71,96,93,76,30.10,30.02,16,2,16,0.50
2013-7-4,86,77,72,80,74,70,96,91,78,30.13,30.04,9,2,13,0.10
2013-7-5,88,78,72,78,73,70,95,85,73,30.13,30.03,9,2,13,0.84
2013-7-6,90,80,74,78,73,69,86,79,63,30.09,30.00,8,2,16,0.04
2013-7-7,89,81,74,78,74,69,85,79,67,30.10,30.01,7,2,13,0.02
2013-7-8,91,82,73,78,73,69,86,77,59,30.13,30.04,5,1,11,0.00
2013-7-9,91,80,71,77,72,66,85,77,53,30.13,30.03,6,2,11,0.00
2013-7-10,89,79,70,77,72,65,85,78,64,30.06,29.94,7,1,13,0.00
2013-7-11,91,79,71,78,72,66,85,79,64,30.01,29.89,8,2,17,0.23
2013-7-12,87,78,71,79,72,66,85,82,76,29.93,29.86,3,0,5,0.01
2013-7-13,89,77,70,78,71,65,85,82,69,29.97,29.88,4,1,7,0.04
2013-7-14,88,76,72,79,70,67,85,83,73,30.06,29.94,10,2,16,0.65
2013-7-15,88,77,70,77,71,65,85,82,68,30.09,30.00,7,1,10,0.00
2013-7-16,88,77,73,77,71,68,85,82,67,30.14,30.06,10,2,13,0.52
2013-7-17,88,78,73,78,72,68,85,82,71,30.13,30.04,10,2,11,0.37
2013-7-18,85,76,72,76,70,67,85,82,75,30.10,30.01,7,1,9,0.43
2013-7-19,88,77,71,78,70,66,83,81,73,30.10,30.00,8,2,10,0.95
2013-7-20,89,77,72,80,71,66,83,81,74,30.08,29.99,10,1,14,0.10
2013-7-21,91,78,71,82,72,66,83,81,73,30.11,29.99,6,1,11,0.52
2013-7-22,91,78,73,81,72,67,82,81,71,30.10,30.03,8,1,14,0.22
2013-7-23,86,78,72,79,71,67,83,81,77,30.07,29.93,7,1,11,0.16
2013-7-24,87,80,74,80,73,68,82,81,78,29.97,29.85,6,1,12,0.33
2013-7-25,85,79,75,79,72,69,82,81,80,29.97,29.84,5,0,8,0.57
2013-7-26,91,81,74,82,74,68,82,79,68,29.98,29.91,5,0,7,0.01
2013-7-27,92,81,72,82,74,67,83,79,68,29.97,29.86,5,0,6,0.00
2013-7-28,91,79,70,81,72,64,83,80,65,30.04,29.91,11,1,13,0.08
2013-7-29,94,81,70,80,73,65,83,78,61,30.13,29.99,10,1,13,0.00
2013-7-30,92,82,72,80,74,66,83,78,62,30.14,30.04,7,1,10,0.00
2013-7-31,94,81,72,81,74,67,84,79,61,30.11,29.98,6,1,11,0.08
2013-8-1,89,77,71,80,71,66,84,82,71,30.04,29.95,5,1,6,0.01
2013-8-10,93,88,80,80,76,74,82,70,59,30.09,30.00,6,1,9,0.01
2013-8-11,94,82,70,81,74,65,83,76,58,30.12,30.02,5,1,7,0.00
2013-8-12,78,76,74,72,70,69,83,83,82,30.10,30.07,0,0,0,0.00
2013-8-24,75,74,74,69,68,68,82,82,82,30.08,30.06,0,0,0,0.01
2013-8-25,79,75,73,73,69,67,82,81,80,30.13,30.05,4,0,6,0.00
2013-8-26,75,74,74,69,69,68,82,82,82,30.04,30.03,0,0,0,0.43
2013-8-27,89,79,71,77,71,65,83,76,60,30.04,29.95,6,2,11,0.01
2013-8-28,90,78,68,75,69,62,84,74,52,30.03,29.94,9,1,12,0.00
2013-8-29,92,81,70,80,72,65,83,75,58,30.01,29.89,2,0,5,0.00
2013-8-30,94,80,71,80,72,66,83,78,60,29.96,29.86,8,0,14,0.79
2013-8-31,93,81,71,82,73,66,83,79,66,29.95,29.86,4,1,7,0.00
2013-9-1,95,80,71,82,72,66,83,79,61,29.97,29.87,7,1,10,0.24
2013-9-2,92,79,70,82,72,65,83,81,69,29.99,29.91,5,1,10,0.07
2013-9-3,91,80,70,81,73,65,83,81,72,29.99,29.90,7,1,15,0.01
2013-9-4,91,78,71,81,72,66,83,81,64,30.07,29.94,15,1,20,0.47
2013-9-5,92,80,72,81,72,66,83,79,64,30.07,29.96,6,1,10,0.03
2013-9-6,93,78,72,81,71,66,84,80,61,30.03,29.90,13,0,23,1.00
2013-9-7,88,76,70,80,70,64,83,81,75,30.00,29.89,8,1,13,0.16
2013-9-8,90,78,70,79,71,64,83,79,63,29.95,29.83,8,1,11,0.00
2013-9-9,90,79,70,77,71,65,83,76,53,30.01,29.90,6,2,10,0.00
2013-9-10,89,80,73,76,72,67,83,76,55,30.06,29.97,9,2,12,0.00
2013-9-11,91,80,72,77,71,66,83,74,55,30.05,29.96,6,1,10,0.00
2013-9-12,89,77,70,79,70,65,83,81,69,30.00,29.88,7,0,9,0.20
2013-9-13,92,79,70,80,72,65,83,79,64,29.89,29.76,2,0,4,0.01
2013-9-14,95,81,70,80,73,65,84,77,57,29.95,29.80,6,1,6,0.00
2013-9-15,90,77,72,80,71,66,84,82,70,30.05,29.94,11,1,11,0.04
2013-9-16,91,77,69,79,70,64,84,80,64,30.05,29.96,15,2,19,0.22
2013-9-17,88,77,70,79,71,65,84,81,70,30.03,29.92,9,2,12,0.18
2013-9-18,84,77,72,77,72,66,84,83,78,30.02,29.93,9,2,15,0.67
2013-9-19,88,79,71,78,71,66,84,79,61,30.02,29.93,7,2,10,0.01
2013-9-20,88,77,68,74,69,63,84,75,58,30.00,29.87,6,1,10,0.00
2013-9-21,90,77,65,77,69,60,84,78,61,29.93,29.74,4,1,6,0.00
2013-9-22,90,78,72,80,72,67,84,82,71,29.83,29.73,7,1,11,0.16
2013-9-23,85,76,73,79,70,67,84,83,80,29.94,29.81,7,1,10,2.41
2013-9-24,82,76,74,76,70,68,83,82,81,29.94,29.82,7,2,11,0.06
2013-9-25,80,75,72,74,69,66,83,82,82,29.85,29.76,5,1,7,0.15
2013-9-26,90,80,73,82,72,67,83,78,54,29.85,29.75,6,1,7,0.00
2013-9-27,82,75,68,75,69,63,84,82,75,29.93,29.82,10,2,14,0.00
2013-9-28,84,76,70,76,70,64,83,82,75,29.97,29.89,9,2,10,0.01
2013-9-29,88,76,67,75,68,62,84,77,59,29.97,29.86,8,1,10,0.00
2013-9-30,90,77,66,76,69,61,84,77,56,29.99,29.88,8,1,9,0.00
2013-10-1,89,78,67,76,70,62,84,78,60,30.03,29.94,8,2,11,0.00
2013-10-2,88,78,68,75,70,63,84,77,63,30.03,29.95,7,2,11,0.00
2013-10-3,89,78,66,75,70,62,84,76,60,30.05,29.95,5,1,8,0.00
2013-10-4,89,78,66,76,70,61,85,77,60,30.06,29.96,5,1,8,0.00
2013-10-5,89,77,65,76,69,60,84,77,62,30.04,29.92,7,2,10,0.00
2013-10-6,91,78,67,78,70,62,84,78,58,29.96,29.82,5,1,11,0.00
2013-10-7,85,76,70,78,71,64,85,83,79,29.85,29.71,9,2,12,0.31
2013-10-8,88,78,74,79,72,68,83,81,74,29.92,29.75,5,1,11,0.17
2013-10-9,82,74,67,74,68,62,84,82,74,30.01,29.90,6,2,11,0.00
2013-10-10,85,73,62,73,65,57,84,78,60,30.03,29.93,7,1,10,0.00
2013-10-11,89,72,59,71,64,54,85,75,54,30.02,29.91,3,0,6,0.00
2013-10-12,88,72,59,73,63,55,85,74,48,30.02,29.94,4,0,9,0.00
2013-10-13,86,71,58,71,61,53,85,74,49,30.06,29.96,4,1,8,0.00
2013-10-14,86,72,61,72,64,56,84,76,53,30.02,29.90,7,2,10,0.00
2013-10-15,81,71,63,74,65,58,84,83,77,29.98,29.87,4,0,5,0.00
2013-10-16,89,76,66,75,68,61,84,77,56,29.95,29.86,4,0,5,0.01
2013-10-17,90,76,63,77,68,58,84,78,59,29.96,29.86,2,0,4,0.00
2013-10-18,89,77,64,77,69,59,84,77,57,29.97,29.86,4,1,8,0.00
2013-10-19,90,78,67,76,70,62,84,77,61,29.93,29.83,7,1,10,0.00
2013-10-20,90,79,71,79,72,66,83,80,66,29.94,29.83,5,1,9,0.00
2013-10-21,91,78,68,79,71,63,84,78,63,29.97,29.87,5,1,7,0.00
2013-10-22,90,78,70,79,71,65,83,79,67,29.91,29.78,6,1,10,0.01
2013-10-23,84,73,63,70,64,57,83,75,48,29.99,29.78,5,0,10,0.00
2013-10-24,72,63,56,60,55,51,85,75,62,30.14,29.98,7,2,11,0.00
2013-10-25,82,65,53,63,54,49,85,70,41,30.22,30.11,8,1,13,0.00
2013-10-26,81,62,50,62,52,45,85,73,41,30.19,30.06,6,1,9,0.01
2013-10-27,80,62,47,62,52,42,85,72,43,30.12,30.03,6,1,10,0.00
2013-10-28,84,65,48,67,56,44,85,74,51,30.17,30.08,5,1,10,0.00
2013-10-29,84,69,57,69,61,52,85,76,57,30.20,30.10,9,2,13,0.01
2013-10-30,84,72,61,72,64,56,84,77,58,30.20,30.08,8,2,12,0.00
2013-10-31,86,72,57,71,63,53,85,76,57,30.11,29.95,8,2,12,0.00
2013-11-1,88,74,63,75,67,58,84,77,56,29.99,29.83,10,2,15,0.00
2013-11-2,74,69,61,69,64,56,84,83,82,29.95,29.79,4,0,6,0.00
2013-11-3,76,64,54,61,53,47,85,70,37,30.09,29.94,8,2,14,0.13
2013-11-4,79,67,54,64,58,50,84,75,56,30.13,30.07,11,4,16,0.00
2013-12-31,67,63,60,55,53,51,83,70,58,30.27,30.19,7,4,9,26.75
2014-1-1,64,61,57,59,56,53,85,84,81,30.23,30.05,6,3,9,24.14
2014-1-2,80,69,60,73,63,55,84,83,76,30.05,29.79,9,2,14,0.36